Heat Index SAI AWOS Graphical Display Untitled Document
Bertrand Chaffee Hospital Heliport (2NK6) Springville, New York, USA
330
20:03
24/07/2014
05
12
N/A
30.03
N/A
1420
68(F), 20(C)
46(F), 8(C)
69 F
47%
SCT046
10
N/A
0"
N/A
20:03 zulu Wind 330 at 05 Knots, Gusting 12 Knots, Altimeter 30.03
METAR K2NK6 242003Z AUTO 33005G12KT 10SM SCT046 20/08 A3003 A02 P0000
METAR:
FAA Disclaimer--Advisory Use ONLY, not for flight info--
INFO:
Wind Direction:
Wind Speed:
Wind Gust:
Wind Variable:
Altimeter:
Dens Alt:
Elev:
Temp:
Dwpt:
Wind Chill
Rel Humidity:
Ceiling:
Visibility:
Prsnt Wea:
PCPN:
Remarks:
How to read the WebPage